This is the latest recevied weather packets stored in our database for station/object KE4AMH. If no packets are shown the sender has not sent any weather packets the latest 10 day(s).
| Time | Temp. | Humidity | Pressure | Rain* | Wind** | Luminosity | Snow |
|---|---|---|---|---|---|---|---|
| 1777482042 | 24.44° C | 77% | 1012.4 hPa | 0 mm | - | 663 W/m² | - |
| 1777481740 | 23.89° C | 78% | 1012.3 hPa | 0 mm | - | 214 W/m² | - |
| 1777481437 | 23.33° C | 77% | 1012.7 hPa | 0 mm | - | 256 W/m² | - |
| 1777481133 | 23.89° C | 76% | 1012.9 hPa | 0 mm | - | 290 W/m² | - |
| 1777480830 | 24.44° C | 74% | 1012.7 hPa | 0 mm | - | 747 W/m² | - |
| 1777480527 | 23.33° C | 77% | 1012.8 hPa | 0 mm | - | 723 W/m² | - |
| 1777480223 | 23.89° C | 77% | 1012.9 hPa | 0 mm | - | 805 W/m² | - |
| 1777479920 | 23.89° C | 78% | 1012.8 hPa | 0 mm | - | 831 W/m² | - |
| 1777479616 | 23.89° C | 78% | 1013 hPa | 0 mm | - | 637 W/m² | - |
| 1777479315 | 23.33° C | 79% | 1013.2 hPa | 0 mm | - | 443 W/m² | - |
| 1777479010 | 23.33° C | 80% | 1013.1 hPa | 0 mm | - | 286 W/m² | - |
| 1777478707 | 22.78° C | 82% | 1012.9 hPa | 0 mm | - | 848 W/m² | - |
| 1777478403 | 22.22° C | 81% | 1013.4 hPa | 0 mm | - | 330 W/m² | - |
| 1777478100 | 22.22° C | 82% | 1013.3 hPa | 0 mm | - | 338 W/m² | - |
| 1777477796 | 22.22° C | 82% | 1013.2 hPa | 0 mm | - | 695 W/m² | - |
| 1777477492 | 21.11° C | 85% | 1013.6 hPa | 0 mm | - | 445 W/m² | - |
| 1777477189 | 21.11° C | 85% | 1013.6 hPa | 0 mm | - | 445 W/m² | - |
| 1777476885 | 20.56° C | 87% | 1013.5 hPa | 0 mm | - | 289 W/m² | - |
| 1777476583 | 20.56° C | 88% | 1013.6 hPa | 0 mm | - | 100 W/m² | - |
| 1777476279 | 20.56° C | 87% | 1013.5 hPa | 0 mm | - | 148 W/m² | - |
| 1777475975 | 20.56° C | 87% | 1013.4 hPa | 0 mm | - | 154 W/m² | - |
| 1777475671 | 20.56° C | 88% | 1013.4 hPa | 0 mm | - | 187 W/m² | - |
| 1777475368 | 20° C | 90% | 1013.2 hPa | 0 mm | - | 188 W/m² | - |
| 1777475063 | 20° C | 90% | 1013.5 hPa | 0 mm | - | 176 W/m² | - |
| 1777474760 | 20° C | 90% | 1013.2 hPa | 0 mm | - | 166 W/m² | - |
* Rain latest hour (hover to see other rain measurements)
** Current wind speed in m/s (hover to see current wind gust speed)